createdAt,value
2019-05-23T00:01:41.682Z,92.54
2019-05-23T00:03:39.035Z,92.27
2019-05-23T00:05:38.112Z,92.46
2019-05-23T00:07:35.036Z,92.26
2019-05-23T00:09:27.608Z,92.41
2019-05-23T00:11:25.908Z,92.82
2019-05-23T00:13:13.637Z,92.72
2019-05-23T00:15:00.753Z,92.70
2019-05-23T00:16:39.431Z,91.74
2019-05-23T00:18:21.147Z,91.61
2019-05-23T00:19:54.788Z,91.30
2019-05-23T00:21:33.522Z,91.71
2019-05-23T00:23:19.679Z,91.87
2019-05-23T00:24:57.269Z,92.57
2019-05-23T00:26:33.055Z,92.95
2019-05-23T00:28:16.759Z,92.63
2019-05-23T00:29:52.064Z,93.14
2019-05-23T00:31:32.265Z,93.09
2019-05-23T00:33:08.626Z,93.24
2019-05-23T00:34:45.438Z,93.03
2019-05-23T00:36:22.010Z,92.43
2019-05-23T00:38:04.655Z,92.88
2019-05-23T00:39:40.181Z,92.91
2019-05-23T00:41:16.197Z,92.86
2019-05-23T00:43:00.197Z,93.01
2019-05-23T00:44:36.553Z,92.46
2019-05-23T00:46:12.153Z,93.12
2019-05-23T00:47:48.470Z,93.07
2019-05-23T00:49:24.699Z,93.50
2019-05-23T00:51:00.202Z,93.46
2019-05-23T00:52:38.771Z,93.65
2019-05-23T00:54:14.710Z,93.58
2019-05-23T00:55:52.273Z,93.90
2019-05-23T00:57:28.896Z,93.86
2019-05-23T00:59:06.945Z,93.92
2019-05-23T01:00:43.943Z,94.04
2019-05-23T01:02:19.514Z,94.13
2019-05-23T01:03:55.290Z,94.08
2019-05-23T01:05:31.079Z,93.46
2019-05-23T01:07:07.464Z,94.11
2019-05-23T01:08:42.952Z,93.92
2019-05-23T01:10:21.212Z,94.04
2019-05-23T01:11:55.926Z,94.17
2019-05-23T01:13:31.449Z,94.17
2019-05-23T01:15:07.312Z,94.16
2019-05-23T01:16:49.436Z,94.20
2019-05-23T01:18:26.694Z,94.34
2019-05-23T01:20:08.288Z,94.65
2019-05-23T01:21:56.118Z,94.30
2019-05-23T01:23:39.419Z,94.35
2019-05-23T01:25:21.535Z,94.46
2019-05-23T01:26:57.069Z,94.75
2019-05-23T01:28:39.653Z,94.71
2019-05-23T01:30:18.725Z,94.97
2019-05-23T01:31:59.673Z,94.89
2019-05-23T01:33:34.931Z,95.03
2019-05-23T01:35:11.056Z,94.81
2019-05-23T01:36:46.455Z,94.85
2019-05-23T01:38:25.671Z,94.79
2019-05-23T01:40:02.641Z,94.97
2019-05-23T01:41:39.625Z,95.17
2019-05-23T01:43:22.409Z,95.10
2019-05-23T01:44:58.644Z,94.91
2019-05-23T01:46:34.262Z,95.06
2019-05-23T01:48:11.898Z,94.95
2019-05-23T01:49:47.608Z,94.85
2019-05-23T01:51:22.439Z,95.00
2019-05-23T01:52:58.331Z,95.34
2019-05-23T01:54:33.452Z,95.29
2019-05-23T01:56:09.665Z,95.35
2019-05-23T01:57:44.856Z,95.38
2019-05-23T01:59:20.544Z,95.56
2019-05-23T02:01:01.924Z,95.40
2019-05-23T02:02:37.722Z,95.73
2019-05-23T02:04:14.050Z,95.74
2019-05-23T02:05:48.989Z,95.73
2019-05-23T02:07:24.882Z,95.53
2019-05-23T02:09:01.255Z,95.67
2019-05-23T02:10:36.923Z,95.52
2019-05-23T02:12:12.318Z,95.85
2019-05-23T02:13:57.994Z,95.76
2019-05-23T02:15:33.592Z,95.74
2019-05-23T02:17:10.956Z,96.01
2019-05-23T02:18:53.538Z,96.06
2019-05-23T02:20:32.315Z,95.86
2019-05-23T02:22:07.223Z,95.86
2019-05-23T02:23:42.746Z,95.88
2019-05-23T02:25:19.460Z,96.34
2019-05-23T02:26:55.278Z,96.31
2019-05-23T02:28:33.561Z,96.50
2019-05-23T02:30:30.103Z,96.31
2019-05-23T02:31:47.356Z,96.21
2019-05-23T02:33:30.241Z,96.45
2019-05-23T02:35:06.348Z,96.15
2019-05-23T02:36:41.128Z,96.32
2019-05-23T02:38:41.483Z,96.79
2019-05-23T02:40:26.449Z,96.67
2019-05-23T02:42:14.743Z,96.72
2019-05-23T02:43:58.771Z,96.79
2019-05-23T02:45:39.489Z,96.75
2019-05-23T02:47:36.370Z,96.83
2019-05-23T02:49:13.337Z,96.62
2019-05-23T02:50:53.382Z,96.53
2019-05-23T02:52:44.104Z,96.85
2019-05-23T02:54:20.571Z,96.85
2019-05-23T02:55:57.998Z,97.09
2019-05-23T02:57:34.345Z,96.95
2019-05-23T02:59:17.831Z,96.91
2019-05-23T03:01:18.856Z,96.61
2019-05-23T03:03:01.350Z,96.47
2019-05-23T03:04:38.087Z,96.94
2019-05-23T03:06:17.557Z,96.81
2019-05-23T03:07:53.786Z,96.93
2019-05-23T03:09:37.922Z,96.84
2019-05-23T03:11:39.067Z,96.88
2019-05-23T03:13:19.095Z,96.78
2019-05-23T03:14:53.277Z,96.60
2019-05-23T03:16:31.312Z,96.65
2019-05-23T03:18:07.590Z,96.73
2019-05-23T03:19:48.119Z,96.85
2019-05-23T03:21:27.247Z,96.82
2019-05-23T03:23:13.163Z,96.76
2019-05-23T03:24:48.899Z,96.93
2019-05-23T03:27:16.868Z,96.60
2019-05-23T03:28:52.894Z,96.10
2019-05-23T03:30:37.280Z,95.57
2019-05-23T03:32:39.554Z,95.29
2019-05-23T03:34:15.722Z,95.08
2019-05-23T03:35:52.444Z,94.95
2019-05-23T03:37:27.728Z,94.29
2019-05-23T03:39:04.562Z,94.08
2019-05-23T03:40:48.504Z,94.00
2019-05-23T03:42:32.429Z,94.18
2019-05-23T03:44:09.567Z,94.04
2019-05-23T03:45:50.357Z,93.41
2019-05-23T03:47:34.425Z,93.18
2019-05-23T03:49:12.106Z,93.18
2019-05-23T03:50:46.858Z,93.41
2019-05-23T03:52:26.732Z,93.16
2019-05-23T03:54:04.241Z,92.60
2019-05-23T03:55:43.259Z,92.78
2019-05-23T03:57:19.320Z,92.68
2019-05-23T03:58:56.726Z,92.47
2019-05-23T04:00:37.338Z,92.53
2019-05-23T04:02:14.319Z,92.13
2019-05-23T04:03:50.484Z,91.94
2019-05-23T04:05:25.717Z,91.43
2019-05-23T04:07:01.363Z,90.56
2019-05-23T04:08:39.357Z,90.21
2019-05-23T04:10:14.273Z,90.20
2019-05-23T04:11:49.948Z,90.21
2019-05-23T04:13:25.161Z,89.83
2019-05-23T04:15:00.478Z,90.61
2019-05-23T04:16:38.590Z,90.20
2019-05-23T04:18:14.609Z,89.34
2019-05-23T04:19:49.678Z,88.87
2019-05-23T04:21:25.573Z,89.09
2019-05-23T04:23:02.176Z,88.61
2019-05-23T04:24:43.601Z,89.26
2019-05-23T04:26:19.019Z,88.48
2019-05-23T04:27:54.438Z,88.30
2019-05-23T04:29:31.864Z,89.04
2019-05-23T04:31:07.069Z,88.04
2019-05-23T04:32:42.416Z,87.42
2019-05-23T04:34:17.087Z,86.18
2019-05-23T04:35:55.305Z,85.28
2019-05-23T04:37:30.699Z,85.52
2019-05-23T04:39:07.207Z,83.85
2019-05-23T04:40:41.831Z,83.67
2019-05-23T04:42:17.160Z,83.53
2019-05-23T04:43:51.806Z,81.45
2019-05-23T04:45:30.670Z,78.76
2019-05-23T04:47:05.801Z,75.63
2019-05-23T04:48:41.056Z,70.03
2019-05-23T04:50:17.041Z,65.93
2019-05-23T04:51:53.240Z,62.03
2019-05-23T04:53:30.611Z,62.03
2019-05-23T04:55:07.069Z,62.73
2019-05-23T04:56:44.275Z,58.81
2019-05-23T04:58:19.789Z,58.81
2019-05-23T04:59:54.934Z,52.43
2019-05-23T05:01:30.652Z,48.82
2019-05-23T05:03:06.415Z,48.82
2019-05-23T05:04:41.921Z,49.44
2019-05-23T05:06:16.573Z,46.75
2019-05-23T05:07:57.468Z,44.65
2019-05-23T05:09:42.458Z,42.33
2019-05-23T05:11:17.188Z,41.00
2019-05-23T05:12:52.710Z,38.31
2019-05-23T05:14:27.588Z,36.15
2019-05-23T05:16:03.894Z,38.12
2019-05-23T05:17:39.585Z,34.61
2019-05-23T05:19:15.100Z,35.37
2019-05-23T05:20:52.765Z,35.22
2019-05-23T05:22:28.087Z,34.14
2019-05-23T05:24:02.878Z,32.59
2019-05-23T05:25:38.500Z,36.86
2019-05-23T05:27:14.985Z,44.00
2019-05-23T05:28:50.300Z,46.12
2019-05-23T05:30:25.434Z,39.36
2019-05-23T05:32:03.962Z,41.52
2019-05-23T05:33:38.583Z,39.70
2019-05-23T05:35:14.000Z,39.84
2019-05-23T05:36:57.261Z,41.93
2019-05-23T05:38:34.025Z,48.65
2019-05-23T05:40:09.700Z,49.70
2019-05-23T05:41:44.965Z,46.32
2019-05-23T05:43:20.277Z,47.25
2019-05-23T05:44:55.692Z,41.88
2019-05-23T05:46:30.479Z,40.02
2019-05-23T05:48:12.856Z,36.75
2019-05-23T05:49:56.698Z,32.29
2019-05-23T05:51:32.403Z,31.60
2019-05-23T05:53:09.313Z,34.25
2019-05-23T05:54:44.837Z,32.73
2019-05-23T05:56:19.547Z,29.76
2019-05-23T05:58:03.256Z,28.24
2019-05-23T05:59:38.879Z,28.63
2019-05-23T06:01:31.215Z,27.03
2019-05-23T06:03:03.646Z,25.92
2019-05-23T06:04:27.937Z,27.35
2019-05-23T06:06:15.059Z,27.18
2019-05-23T06:07:50.752Z,28.79
2019-05-23T06:09:28.466Z,32.66
2019-05-23T06:11:03.731Z,33.40
2019-05-23T06:12:38.492Z,33.34
2019-05-23T06:14:14.174Z,33.98
2019-05-23T06:15:49.593Z,32.37
2019-05-23T06:17:26.580Z,31.33
2019-05-23T06:19:01.486Z,28.78
2019-05-23T06:20:40.651Z,29.23
2019-05-23T06:22:14.346Z,27.99
2019-05-23T06:23:55.870Z,26.48
2019-05-23T06:25:31.168Z,26.31
2019-05-23T06:27:08.181Z,28.16
2019-05-23T06:29:00.070Z,25.46
2019-05-23T06:30:38.546Z,24.10
2019-05-23T06:32:16.750Z,24.38
2019-05-23T06:33:52.253Z,24.25
2019-05-23T06:35:34.958Z,26.12
2019-05-23T06:37:11.115Z,27.84
2019-05-23T06:38:45.891Z,25.85
2019-05-23T06:40:21.248Z,25.04
2019-05-23T06:41:57.670Z,23.70
2019-05-23T06:43:37.004Z,23.28
2019-05-23T06:45:13.526Z,22.98
2019-05-23T06:46:49.037Z,22.50
2019-05-23T06:48:24.351Z,19.43
2019-05-23T06:50:00.695Z,18.08
2019-05-23T06:51:36.675Z,24.38
2019-05-23T06:53:16.009Z,24.58
2019-05-23T06:54:50.827Z,23.87
2019-05-23T06:56:26.907Z,21.01
2019-05-23T06:58:01.914Z,21.25
2019-05-23T06:59:37.218Z,20.02
2019-05-23T07:01:11.882Z,19.24
2019-05-23T07:02:50.352Z,19.20
2019-05-23T07:04:25.369Z,17.49
2019-05-23T07:06:00.608Z,17.96
2019-05-23T07:07:36.216Z,18.71
2019-05-23T07:09:15.532Z,17.91
2019-05-23T07:10:50.166Z,18.66
2019-05-23T07:12:25.837Z,18.64
2019-05-23T07:14:00.824Z,16.47
2019-05-23T07:15:36.445Z,15.79
2019-05-23T07:17:11.705Z,14.28
2019-05-23T07:18:47.094Z,15.30
2019-05-23T07:20:22.892Z,15.41
2019-05-23T07:21:58.212Z,15.38
2019-05-23T07:23:38.352Z,13.60
2019-05-23T07:25:19.324Z,15.38
2019-05-23T07:26:53.980Z,16.13
2019-05-23T07:28:31.899Z,14.79
2019-05-23T07:30:10.764Z,13.95
2019-05-23T07:31:46.141Z,18.12
2019-05-23T07:33:20.880Z,14.77
2019-05-23T07:34:56.141Z,15.59
2019-05-23T07:36:31.727Z,15.48
2019-05-23T07:38:07.158Z,12.94
2019-05-23T07:39:42.168Z,12.81
2019-05-23T07:41:18.087Z,12.99
2019-05-23T07:42:54.806Z,14.65
2019-05-23T07:44:31.116Z,14.47
2019-05-23T07:46:07.006Z,14.11
2019-05-23T07:47:42.836Z,14.79
2019-05-23T07:49:17.547Z,15.01
2019-05-23T07:50:52.832Z,14.21
2019-05-23T07:52:27.539Z,14.35
2019-05-23T07:54:21.361Z,13.10
2019-05-23T07:55:58.082Z,14.59
2019-05-23T07:57:33.311Z,15.37
2019-05-23T07:59:08.040Z,14.16
2019-05-23T08:00:49.289Z,13.93
2019-05-23T08:02:33.007Z,13.24
2019-05-23T08:04:20.578Z,15.94
2019-05-23T08:05:45.686Z,13.74
2019-05-23T08:07:22.010Z,14.52
2019-05-23T08:08:58.564Z,14.67
2019-05-23T08:10:34.670Z,13.36
2019-05-23T08:12:09.481Z,14.39
2019-05-23T08:13:45.054Z,14.94
2019-05-23T08:15:20.611Z,14.47
2019-05-23T08:16:59.194Z,14.46
2019-05-23T08:18:33.848Z,14.87
2019-05-23T08:20:10.077Z,15.78
2019-05-23T08:21:44.737Z,14.00
2019-05-23T08:23:20.225Z,14.26
2019-05-23T08:24:55.161Z,14.11
2019-05-23T08:26:31.479Z,14.54
2019-05-23T08:28:06.283Z,12.99
2019-05-23T08:29:41.968Z,13.27
2019-05-23T08:31:16.731Z,13.17
2019-05-23T08:32:51.983Z,16.58
2019-05-23T08:34:40.770Z,14.46
2019-05-23T08:36:07.958Z,14.98
2019-05-23T08:37:42.687Z,14.56
2019-05-23T08:39:19.108Z,14.76
2019-05-23T08:40:54.497Z,15.81
2019-05-23T08:42:30.795Z,16.99
2019-05-23T08:44:06.214Z,15.79
2019-05-23T08:45:44.119Z,17.96
2019-05-23T08:47:18.897Z,16.01
2019-05-23T08:48:54.284Z,16.97
2019-05-23T08:50:29.340Z,21.36
2019-05-23T08:52:04.922Z,21.04
2019-05-23T08:53:43.281Z,23.85
2019-05-23T08:55:21.938Z,22.38
2019-05-23T08:56:58.275Z,21.49
2019-05-23T08:58:33.756Z,20.50
2019-05-23T09:00:10.185Z,21.63
2019-05-23T09:01:45.893Z,21.08
2019-05-23T09:03:21.442Z,23.86
2019-05-23T09:05:05.639Z,21.91
2019-05-23T09:06:37.155Z,21.83
2019-05-23T09:08:16.424Z,22.80
2019-05-23T09:09:49.414Z,24.24
2019-05-23T09:11:32.976Z,22.16
2019-05-23T09:13:09.155Z,21.94
2019-05-23T09:14:44.091Z,23.23
2019-05-23T09:16:19.392Z,24.71
2019-05-23T09:17:54.494Z,23.17
2019-05-23T09:19:29.885Z,21.79
2019-05-23T09:21:05.042Z,23.12
2019-05-23T09:22:44.771Z,23.88
2019-05-23T09:24:19.915Z,23.53
2019-05-23T09:25:55.277Z,21.38
2019-05-23T09:27:30.101Z,23.33
2019-05-23T09:29:06.861Z,23.54
2019-05-23T09:30:41.791Z,23.49
2019-05-23T09:32:17.083Z,25.60
2019-05-23T09:33:51.781Z,26.00
2019-05-23T09:35:27.709Z,24.02
2019-05-23T09:37:02.593Z,24.11
2019-05-23T09:38:37.817Z,21.75
2019-05-23T09:40:12.641Z,23.46
2019-05-23T09:41:48.278Z,22.95
2019-05-23T09:43:23.201Z,23.89
2019-05-23T09:44:58.451Z,24.48
2019-05-23T09:46:33.188Z,24.45
2019-05-23T09:48:08.718Z,21.45
2019-05-23T09:49:53.470Z,23.65
2019-05-23T09:51:21.067Z,24.35
2019-05-23T09:52:55.816Z,24.92
2019-05-23T09:54:31.650Z,24.94
2019-05-23T09:56:06.318Z,22.58
2019-05-23T09:57:41.518Z,25.35
2019-05-23T09:59:16.250Z,25.07
2019-05-23T10:00:51.655Z,22.79
2019-05-23T10:02:29.460Z,25.30
2019-05-23T10:04:05.190Z,23.69
2019-05-23T10:05:43.604Z,23.63
2019-05-23T10:07:20.757Z,23.50
2019-05-23T10:08:56.418Z,23.51
2019-05-23T10:10:31.690Z,24.66
2019-05-23T10:12:07.106Z,23.88
2019-05-23T10:13:41.864Z,22.88
2019-05-23T10:15:28.746Z,23.86
2019-05-23T10:17:04.120Z,24.86
2019-05-23T10:18:39.411Z,27.50
2019-05-23T10:20:17.770Z,26.37
2019-05-23T10:21:52.490Z,24.10
2019-05-23T10:23:29.353Z,25.68
2019-05-23T10:25:04.387Z,25.59
2019-05-23T10:26:39.638Z,25.62
2019-05-23T10:28:14.460Z,25.83
2019-05-23T10:29:49.731Z,25.26
2019-05-23T10:31:25.178Z,24.82
2019-05-23T10:33:00.419Z,24.85
2019-05-23T10:34:35.325Z,24.59
2019-05-23T10:36:10.728Z,26.90
2019-05-23T10:37:45.396Z,27.28
2019-05-23T10:39:21.287Z,27.56
2019-05-23T10:40:55.987Z,26.25
2019-05-23T10:42:31.665Z,26.45
2019-05-23T10:44:06.616Z,29.18
2019-05-23T10:45:47.557Z,28.77
2019-05-23T10:47:22.867Z,26.77
2019-05-23T10:49:00.674Z,28.30
2019-05-23T10:50:44.828Z,28.87
2019-05-23T10:52:14.163Z,27.44
2019-05-23T10:53:52.162Z,28.62
2019-05-23T10:55:27.287Z,27.71
2019-05-23T10:57:02.607Z,26.95
2019-05-23T10:58:38.830Z,27.25
2019-05-23T11:00:15.472Z,28.53
2019-05-23T11:01:57.271Z,28.68
2019-05-23T11:03:32.629Z,29.42
2019-05-23T11:05:12.931Z,28.83
2019-05-23T11:06:45.278Z,27.99
2019-05-23T11:08:20.296Z,28.80
2019-05-23T11:09:56.650Z,29.23
2019-05-23T11:11:31.348Z,29.76
2019-05-23T11:13:06.760Z,29.19
2019-05-23T11:14:41.418Z,30.75
2019-05-23T11:16:16.919Z,29.07
2019-05-23T11:17:55.626Z,30.88
2019-05-23T11:19:31.317Z,30.30
2019-05-23T11:21:06.049Z,31.91
2019-05-23T11:22:46.819Z,30.32
2019-05-23T11:24:21.759Z,29.57
2019-05-23T11:26:01.459Z,29.92
2019-05-23T11:27:35.785Z,31.33
2019-05-23T11:29:13.844Z,31.77
2019-05-23T11:30:53.943Z,31.56
2019-05-23T11:32:29.247Z,31.42
2019-05-23T11:34:04.465Z,31.48
2019-05-23T11:35:43.853Z,31.45
2019-05-23T11:37:18.900Z,32.13
2019-05-23T11:38:57.200Z,31.63
2019-05-23T11:40:33.790Z,31.63
2019-05-23T11:42:10.354Z,32.12
2019-05-23T11:43:45.739Z,33.06
2019-05-23T11:45:21.223Z,30.26
2019-05-23T11:46:56.029Z,30.48
2019-05-23T11:48:31.531Z,30.41
2019-05-23T11:50:06.520Z,30.38
2019-05-23T11:51:41.780Z,30.38
2019-05-23T11:53:16.602Z,31.45
2019-05-23T11:55:01.272Z,30.23
2019-05-23T11:56:40.633Z,30.55
2019-05-23T11:58:15.279Z,31.90
2019-05-23T11:59:50.788Z,29.89
2019-05-23T12:01:43.794Z,31.45
2019-05-23T12:03:19.049Z,31.06
2019-05-23T12:04:54.404Z,31.45
2019-05-23T12:06:53.489Z,30.51
2019-05-23T12:08:12.009Z,31.19
2019-05-23T12:09:47.390Z,32.27
2019-05-23T12:11:22.518Z,31.90
2019-05-23T12:12:59.444Z,31.56
2019-05-23T12:14:43.106Z,32.29
2019-05-23T12:16:19.026Z,31.38
2019-05-23T12:17:54.808Z,31.87
2019-05-23T12:19:30.233Z,31.42
2019-05-23T12:21:05.236Z,31.95
2019-05-23T12:22:46.703Z,31.34
2019-05-23T12:24:22.457Z,31.74
2019-05-23T12:25:57.093Z,31.28
2019-05-23T12:27:37.856Z,31.40
2019-05-23T12:29:13.410Z,31.25
2019-05-23T12:30:54.293Z,31.92
2019-05-23T12:32:29.531Z,32.58
2019-05-23T12:34:04.402Z,31.87
2019-05-23T12:35:39.735Z,30.55
2019-05-23T12:37:19.007Z,29.74
2019-05-23T12:38:51.645Z,30.14
2019-05-23T12:40:26.720Z,30.60
2019-05-23T12:42:01.944Z,30.06
2019-05-23T12:43:36.586Z,29.91
2019-05-23T12:45:17.342Z,31.19
2019-05-23T12:46:52.114Z,32.30
2019-05-23T12:48:40.490Z,30.64
2019-05-23T12:50:17.851Z,30.64
2019-05-23T12:52:01.923Z,30.48
2019-05-23T12:53:37.234Z,31.46
2019-05-23T12:55:12.090Z,31.23
2019-05-23T12:56:49.479Z,31.74
2019-05-23T12:58:25.705Z,31.81
2019-05-23T13:00:12.500Z,31.45
2019-05-23T13:01:48.918Z,31.23
2019-05-23T13:03:25.562Z,30.39
2019-05-23T13:05:01.318Z,31.34
2019-05-23T13:06:36.609Z,31.04
2019-05-23T13:08:12.138Z,31.62
2019-05-23T13:09:47.074Z,31.71
2019-05-23T13:11:23.302Z,31.08
2019-05-23T13:12:58.020Z,31.31
2019-05-23T13:14:33.634Z,31.60
2019-05-23T13:16:08.282Z,31.87
2019-05-23T13:17:43.847Z,32.12
2019-05-23T13:19:18.848Z,31.90
2019-05-23T13:20:59.345Z,31.80
2019-05-23T13:22:31.933Z,31.67
2019-05-23T13:24:07.245Z,32.39
2019-05-23T13:25:41.946Z,32.88
2019-05-23T13:27:17.358Z,33.01
2019-05-23T13:28:56.416Z,33.29
2019-05-23T13:30:31.745Z,32.93
2019-05-23T13:32:07.080Z,33.09
2019-05-23T13:33:48.348Z,32.68
2019-05-23T13:35:24.355Z,33.75
2019-05-23T13:36:59.008Z,33.42
2019-05-23T13:38:34.362Z,33.43
2019-05-23T13:40:10.276Z,33.24
2019-05-23T13:41:50.831Z,33.42
2019-05-23T13:43:25.628Z,33.79
2019-05-23T13:45:01.952Z,34.06
2019-05-23T13:46:36.896Z,33.16
2019-05-23T13:48:13.810Z,33.43
2019-05-23T13:49:56.137Z,33.53
2019-05-23T13:51:31.383Z,33.11
2019-05-23T13:53:06.453Z,33.85
2019-05-23T13:54:43.092Z,33.66
2019-05-23T13:56:18.398Z,33.89
2019-05-23T13:58:01.173Z,33.69
2019-05-23T13:59:36.959Z,34.55
2019-05-23T14:01:12.294Z,35.50
2019-05-23T14:02:49.159Z,33.98
2019-05-23T14:04:23.847Z,35.15
2019-05-23T14:06:05.277Z,34.53
2019-05-23T14:07:40.521Z,34.63
2019-05-23T14:09:16.472Z,34.78
2019-05-23T14:10:57.102Z,34.48
2019-05-23T14:12:32.400Z,34.60
2019-05-23T14:14:07.656Z,34.56
2019-05-23T14:15:47.074Z,34.70
2019-05-23T14:17:39.260Z,34.80
2019-05-23T14:19:14.585Z,34.92
2019-05-23T14:20:54.503Z,33.26
2019-05-23T14:22:30.547Z,33.60
2019-05-23T14:24:05.299Z,33.50
2019-05-23T14:25:46.560Z,34.60
2019-05-23T14:27:52.759Z,34.61
2019-05-23T14:29:29.412Z,34.14
2019-05-23T14:31:20.571Z,34.01
2019-05-23T14:33:06.485Z,33.21
2019-05-23T14:34:44.558Z,34.85
2019-05-23T14:36:32.155Z,34.16
2019-05-23T14:38:08.080Z,34.10
2019-05-23T14:39:54.799Z,34.07
2019-05-23T14:41:44.616Z,33.91
2019-05-23T14:43:20.941Z,34.70
2019-05-23T14:44:56.114Z,34.63
2019-05-23T14:46:36.780Z,34.18
2019-05-23T14:48:29.664Z,34.06
2019-05-23T14:50:14.514Z,34.54
2019-05-23T14:51:57.552Z,34.03
2019-05-23T14:53:34.485Z,34.24
2019-05-23T14:55:19.083Z,35.38
2019-05-23T14:56:54.307Z,34.81
2019-05-23T14:58:29.531Z,34.54
2019-05-23T15:00:07.244Z,34.92
2019-05-23T15:01:42.521Z,34.50
2019-05-23T15:03:19.395Z,34.21
2019-05-23T15:04:54.110Z,34.96
2019-05-23T15:06:29.599Z,34.65
2019-05-23T15:08:07.532Z,34.90
2019-05-23T15:09:42.779Z,34.54
2019-05-23T15:11:26.332Z,35.57
2019-05-23T15:13:01.989Z,34.92
2019-05-23T15:14:36.629Z,35.04
2019-05-23T15:16:12.039Z,35.32
2019-05-23T15:17:46.709Z,34.65
2019-05-23T15:21:15.007Z,35.17
2019-05-23T15:22:51.521Z,36.19
2019-05-23T15:24:26.617Z,35.36
2019-05-23T15:26:21.094Z,35.52
2019-05-23T15:27:40.104Z,35.75
2019-05-23T15:29:15.402Z,35.66
2019-05-23T15:30:50.047Z,35.47
2019-05-23T15:32:25.375Z,35.87
2019-05-23T15:34:00.337Z,35.53
2019-05-23T15:35:36.273Z,35.03
2019-05-23T15:37:10.990Z,35.44
2019-05-23T15:38:46.349Z,35.35
2019-05-23T15:40:21.663Z,35.71
2019-05-23T15:41:58.785Z,35.38
2019-05-23T15:43:33.466Z,35.59
2019-05-23T15:45:11.161Z,35.69
2019-05-23T15:46:45.875Z,35.25
2019-05-23T15:48:21.185Z,35.97
2019-05-23T15:49:57.515Z,36.54
2019-05-23T15:51:38.593Z,35.57
2019-05-23T15:53:32.623Z,36.78
2019-05-23T15:55:19.717Z,36.74
2019-05-23T15:56:59.891Z,36.60
2019-05-23T15:58:55.521Z,36.56
2019-05-23T16:00:52.312Z,36.41
2019-05-23T16:02:33.133Z,36.10
2019-05-23T16:04:12.949Z,36.64
2019-05-23T16:05:51.300Z,36.37
2019-05-23T16:07:27.579Z,36.37
2019-05-23T16:09:02.467Z,36.72
2019-05-23T16:10:39.316Z,36.92
2019-05-23T16:12:15.313Z,36.94
2019-05-23T16:13:57.943Z,36.87
2019-05-23T16:15:33.302Z,37.81
2019-05-23T16:17:09.381Z,37.43
2019-05-23T16:18:45.102Z,36.80
2019-05-23T16:20:20.120Z,36.84
2019-05-23T16:21:55.883Z,36.88
2019-05-23T16:23:30.992Z,37.48
2019-05-23T16:25:06.961Z,37.15
2019-05-23T16:26:41.797Z,37.12
2019-05-23T16:28:17.266Z,36.98
2019-05-23T16:29:52.508Z,37.07
2019-05-23T16:31:27.754Z,36.73
2019-05-23T16:33:05.414Z,37.14
2019-05-23T16:34:40.725Z,37.38
2019-05-23T16:36:15.733Z,37.26
2019-05-23T16:38:04.044Z,37.66
2019-05-23T16:39:47.685Z,36.90
2019-05-23T16:41:15.717Z,37.08
2019-05-23T16:42:50.984Z,36.97
2019-05-23T16:44:25.770Z,37.54
2019-05-23T16:46:01.001Z,37.57
2019-05-23T16:47:35.635Z,37.56
2019-05-23T16:49:10.893Z,37.91
2019-05-23T16:50:45.543Z,37.73
2019-05-23T16:52:26.655Z,37.60
2019-05-23T16:54:02.375Z,37.82
2019-05-23T16:55:55.330Z,37.81
2019-05-23T16:57:42.748Z,37.87
2019-05-23T16:59:25.895Z,38.11
2019-05-23T17:01:23.303Z,38.71
2019-05-23T17:02:59.454Z,38.64
2019-05-23T17:04:47.443Z,38.55
2019-05-23T17:06:31.156Z,40.11
2019-05-23T17:08:27.707Z,38.56
2019-05-23T17:10:17.246Z,38.67
2019-05-23T17:12:10.866Z,38.57
2019-05-23T17:13:54.294Z,38.56
2019-05-23T17:15:59.735Z,38.76
2019-05-23T17:18:01.626Z,39.53
2019-05-23T17:19:53.055Z,39.54
2019-05-23T17:22:01.523Z,39.61
2019-05-23T17:23:48.142Z,39.62
2019-05-23T17:25:39.912Z,40.26
2019-05-23T17:27:52.013Z,39.67
2019-05-23T17:29:32.689Z,40.89
2019-05-23T17:31:10.960Z,41.05
2019-05-23T17:32:45.686Z,43.46
2019-05-23T17:34:20.921Z,41.82
2019-05-23T17:36:01.591Z,41.67
2019-05-23T17:37:36.822Z,43.00
2019-05-23T17:39:12.771Z,42.68
2019-05-23T17:40:49.045Z,43.30
2019-05-23T17:42:24.457Z,44.14
2019-05-23T17:43:59.677Z,44.59
2019-05-23T17:45:34.935Z,44.06
2019-05-23T17:47:12.198Z,44.72
2019-05-23T17:48:47.603Z,46.51
2019-05-23T17:50:23.180Z,43.11
2019-05-23T17:51:57.910Z,42.51
2019-05-23T17:53:41.389Z,43.46
2019-05-23T17:55:16.688Z,44.55
2019-05-23T17:56:51.411Z,46.24
2019-05-23T17:58:29.918Z,44.40
2019-05-23T18:00:03.418Z,45.87
2019-05-23T18:01:42.262Z,44.58
2019-05-23T18:03:17.484Z,46.61
2019-05-23T18:04:57.859Z,46.02
2019-05-23T18:06:33.323Z,45.14
2019-05-23T18:08:10.221Z,43.95
2019-05-23T18:09:46.463Z,44.07
2019-05-23T18:11:21.336Z,43.90
2019-05-23T18:12:57.592Z,44.51
2019-05-23T18:14:32.509Z,45.60
2019-05-23T18:16:15.082Z,45.70
2019-05-23T18:17:50.301Z,46.01
2019-05-23T18:19:25.520Z,46.44
2019-05-23T18:21:01.273Z,46.67
2019-05-23T18:22:36.762Z,46.23
2019-05-23T18:24:12.307Z,45.77
2019-05-23T18:25:47.249Z,45.34
2019-05-23T18:27:23.031Z,45.86
2019-05-23T18:28:57.927Z,46.58
2019-05-23T18:30:52.459Z,45.67
2019-05-23T18:32:37.546Z,45.00
2019-05-23T18:34:13.319Z,44.98
2019-05-23T18:35:49.048Z,45.13
2019-05-23T18:37:25.127Z,45.76
2019-05-23T18:38:59.943Z,46.92
2019-05-23T18:40:35.520Z,47.55
2019-05-23T18:42:10.255Z,46.20
2019-05-23T18:43:54.643Z,47.31
2019-05-23T18:45:38.397Z,46.36
2019-05-23T18:47:22.746Z,46.48
2019-05-23T18:48:57.980Z,45.96
2019-05-23T18:50:34.778Z,46.29
2019-05-23T18:52:10.649Z,47.80
2019-05-23T18:53:56.262Z,47.76
2019-05-23T18:55:31.633Z,48.37
2019-05-23T18:57:06.511Z,47.35
2019-05-23T18:58:41.810Z,47.52
2019-05-23T19:00:20.021Z,47.41
2019-05-23T19:01:58.185Z,48.02
2019-05-23T19:03:33.377Z,48.17
2019-05-23T19:05:10.011Z,48.07
2019-05-23T19:06:45.388Z,48.55
2019-05-23T19:08:22.438Z,48.43
2019-05-23T19:09:57.185Z,49.10
2019-05-23T19:11:32.845Z,49.45
2019-05-23T19:13:08.649Z,49.88
2019-05-23T19:14:54.785Z,49.58
2019-05-23T19:16:30.915Z,49.21
2019-05-23T19:18:07.868Z,49.68
2019-05-23T19:19:43.371Z,49.88
2019-05-23T19:21:19.448Z,49.83
2019-05-23T19:22:56.571Z,50.79
2019-05-23T19:24:32.008Z,51.34
2019-05-23T19:26:07.834Z,51.06
2019-05-23T19:27:42.693Z,51.45
2019-05-23T19:29:19.894Z,50.93
2019-05-23T19:30:54.875Z,50.70
2019-05-23T19:32:33.566Z,51.28
2019-05-23T19:34:08.532Z,51.61
2019-05-23T19:35:47.414Z,52.27
2019-05-23T19:37:28.910Z,51.62
2019-05-23T19:39:04.446Z,52.01
2019-05-23T19:40:46.230Z,53.26
2019-05-23T19:42:21.601Z,52.99
2019-05-23T19:43:56.911Z,54.86
2019-05-23T19:45:41.884Z,54.38
2019-05-23T19:47:17.179Z,54.38
2019-05-23T19:48:55.253Z,54.82
2019-05-23T19:50:30.898Z,55.54
2019-05-23T19:52:07.637Z,55.99
2019-05-23T19:53:45.491Z,55.99
2019-05-23T19:55:20.168Z,56.26
2019-05-23T19:57:01.309Z,57.19
2019-05-23T19:58:36.062Z,56.54
2019-05-23T20:00:15.100Z,57.70
2019-05-23T20:02:12.565Z,57.15
2019-05-23T20:03:51.190Z,57.40
2019-05-23T20:05:37.609Z,58.39
2019-05-23T20:07:15.485Z,58.59
2019-05-23T20:08:50.014Z,58.59
2019-05-23T20:10:25.892Z,58.83
2019-05-23T20:12:00.613Z,59.32
2019-05-23T20:13:35.924Z,58.85
2019-05-23T20:15:12.600Z,59.64
2019-05-23T20:16:50.649Z,59.63
2019-05-23T20:18:28.683Z,60.90
2019-05-23T20:20:04.205Z,61.58
2019-05-23T20:21:38.877Z,61.72
2019-05-23T20:23:16.127Z,61.39
2019-05-23T20:24:50.928Z,61.41
2019-05-23T20:26:30.939Z,62.24
2019-05-23T20:28:06.418Z,63.24
2019-05-23T20:29:41.681Z,62.67
2019-05-23T20:31:16.700Z,62.67
2019-05-23T20:32:51.917Z,62.65
2019-05-23T20:34:26.661Z,63.50
2019-05-23T20:36:03.384Z,60.57
2019-05-23T20:37:41.428Z,60.57
2019-05-23T20:39:17.962Z,59.63
2019-05-23T20:40:52.843Z,60.69
2019-05-23T20:42:28.312Z,60.67
2019-05-23T20:44:03.150Z,60.58
2019-05-23T20:45:39.224Z,60.32
2019-05-23T20:47:15.757Z,60.80
2019-05-23T20:48:51.060Z,60.66
2019-05-23T20:50:26.034Z,60.28
2019-05-23T20:52:01.460Z,62.16
2019-05-23T20:53:36.946Z,61.13
2019-05-23T20:55:12.262Z,60.81
2019-05-23T20:56:49.645Z,60.44
2019-05-23T20:58:40.878Z,62.14
2019-05-23T21:00:24.188Z,60.86
2019-05-23T21:01:57.844Z,61.48
2019-05-23T21:03:35.497Z,61.08
2019-05-23T21:05:13.345Z,61.29